Terminal Aerodrome Forecast
Issued by NWS

Home | Current Version | Previous Version | Text Only | Print | Product List | Glossary On
Versions: 1 2 3 4 5 6 7 8 9 10 11 12 13 14 15 16 17 18 19 20 21
000
FTUS46 KMFR 272339
TAFOTH
TAF
KOTH 272339Z 2800/2824 28012KT P6SM -SHRA SCT015 BKN025 OVC060
     FM280800 09003KT P6SM SCT030
     FM282000 03014G24KT P6SM FEW030=

USA.gov is the U.S. government's official web portal to all federal, state and local government web resources and services.